Time;durP1;ratioP1;P1;durP2;ratioP2;P2;SDS_P1;SDS_P2;PMS_P1;PMS_P2;Temp;Humidity;BMP_temperature;BMP_pressure;BME280_temperature;BME280_humidity;BME280_pressure;Samples;Min_cycle;Max_cycle;Signal;HPM_P1;HPM_P2
2022/10/01 00:01:10;;;;;;;4.50;3.20;;;10.30;99.90;;;;;;5048904;28;20029;-45
2022/10/01 00:03:35;;;;;;;5.35;3.50;;;10.40;99.90;;;;;;5048489;28;20040;-44
2022/10/01 00:06:10;;;;;;;5.10;3.15;;;10.30;99.90;;;;;;5049405;28;20033;-44
2022/10/01 00:08:38;;;;;;;7.60;3.55;;;10.30;99.90;;;;;;5052951;28;20114;-44
2022/10/01 00:11:13;;;;;;;6.63;4.18;;;10.30;99.90;;;;;;5052757;28;20021;-44
2022/10/01 00:13:41;;;;;;;8.35;3.50;;;10.30;99.90;;;;;;5050792;28;20037;-43
2022/10/01 00:16:09;;;;;;;4.22;3.28;;;10.20;99.90;;;;;;5052712;28;20021;-44
2022/10/01 00:18:36;;;;;;;5.47;3.60;;;10.20;99.90;;;;;;5040565;28;20025;-44
2022/10/01 00:21:08;;;;;;;4.63;3.22;;;10.20;99.90;;;;;;5049386;28;20029;-44
2022/10/01 00:23:34;;;;;;;7.07;4.03;;;10.20;99.90;;;;;;5051911;28;20112;-44
2022/10/01 00:26:20;;;;;;;13.75;4.00;;;10.20;99.90;;;;;;5052078;28;20160;-44
2022/10/01 00:28:47;;;;;;;5.50;3.60;;;10.20;99.90;;;;;;5052112;28;20174;-45
2022/10/01 00:31:14;;;;;;;6.82;3.65;;;10.30;99.90;;;;;;5052395;28;20489;-45
2022/10/01 00:33:41;;;;;;;7.50;4.00;;;10.20;99.90;;;;;;5051477;28;20102;-44
2022/10/01 00:36:08;;;;;;;5.72;3.42;;;10.20;99.90;;;;;;5052075;28;20017;-44
2022/10/01 00:38:34;;;;;;;4.50;3.65;;;10.20;99.90;;;;;;5052008;28;20024;-44
2022/10/01 00:41:00;;;;;;;4.47;3.78;;;10.10;99.90;;;;;;5051860;28;20043;-44
2022/10/01 00:43:31;;;;;;;4.40;3.15;;;10.20;99.90;;;;;;5051617;28;20025;-44
2022/10/01 00:46:03;;;;;;;4.38;3.28;;;10.10;99.90;;;;;;5051812;28;20033;-47
2022/10/01 00:48:33;;;;;;;4.55;3.17;;;10.10;99.90;;;;;;5040691;28;20026;-45
2022/10/01 00:50:58;;;;;;;6.50;3.80;;;10.20;99.90;;;;;;5048143;28;20025;-46
2022/10/01 00:53:25;;;;;;;4.65;3.22;;;10.20;99.90;;;;;;5051206;28;20075;-45
2022/10/01 00:55:56;;;;;;;4.53;3.47;;;10.20;99.90;;;;;;5051881;28;20163;-45
2022/10/01 00:58:23;;;;;;;3.72;3.25;;;10.30;99.90;;;;;;5051748;28;20506;-44
2022/10/01 01:00:50;;;;;;;7.60;3.45;;;10.30;99.90;;;;;;5051819;28;20052;-45
2022/10/01 01:03:16;;;;;;;7.95;3.58;;;10.40;99.90;;;;;;5050844;28;20029;-44
2022/10/01 01:05:42;;;;;;;6.20;3.08;;;10.30;99.90;;;;;;5050016;28;20028;-44
2022/10/01 01:08:09;;;;;;;8.18;4.18;;;10.30;99.90;;;;;;5031038;28;20043;-44
2022/10/01 01:10:56;;;;;;;5.47;3.20;;;10.30;99.90;;;;;;5020907;28;20387;-44
2022/10/01 01:13:55;;;;;;;5.80;3.20;;;10.30;99.90;;;;;;5021143;28;20105;-44
2022/10/01 01:16:33;;;;;;;5.93;3.17;;;10.30;99.90;;;;;;5031424;28;20485;-47
2022/10/01 01:19:19;;;;;;;4.15;3.13;;;10.30;99.90;;;;;;5039389;28;20033;-44
2022/10/01 01:21:50;;;;;;;4.43;3.47;;;10.40;99.90;;;;;;5011646;28;20026;-45
2022/10/01 01:24:54;;;;;;;11.02;3.50;;;10.40;99.90;;;;;;5009938;28;20480;-44
2022/10/01 01:27:36;;;;;;;4.07;3.05;;;10.40;99.90;;;;;;5011107;28;20136;-44
2022/10/01 01:30:03;;;;;;;7.32;3.40;;;10.40;99.90;;;;;;5022299;28;20068;-44
2022/10/01 01:33:01;;;;;;;4.32;3.30;;;10.40;99.90;;;;;;5017777;28;20514;-44
2022/10/01 01:35:36;;;;;;;6.90;3.45;;;10.40;99.90;;;;;;5011382;28;20595;-45
2022/10/01 01:38:09;;;;;;;5.97;3.97;;;10.40;99.90;;;;;;5011458;28;20046;-45
2022/10/01 01:40:36;;;;;;;4.15;3.40;;;10.40;99.90;;;;;;5012628;28;20599;-44
2022/10/01 01:43:06;;;;;;;7.03;3.42;;;10.40;99.90;;;;;;5019238;28;20032;-46
2022/10/01 01:45:34;;;;;;;8.18;3.53;;;10.40;99.90;;;;;;5011243;28;20504;-45
2022/10/01 01:48:01;;;;;;;3.67;3.13;;;10.40;99.90;;;;;;5033897;28;20444;-46
2022/10/01 01:50:32;;;;;;;6.47;3.53;;;10.40;99.90;;;;;;5042787;28;20025;-45
2022/10/01 01:52:58;;;;;;;5.15;3.40;;;10.40;99.90;;;;;;5050410;28;20017;-46
2022/10/01 01:55:27;;;;;;;8.95;3.22;;;10.30;99.90;;;;;;5051320;28;20025;-46
2022/10/01 01:57:53;;;;;;;4.65;3.30;;;10.30;99.90;;;;;;5050561;28;20028;-45
2022/10/01 02:00:19;;;;;;;6.25;3.63;;;10.30;99.90;;;;;;5050640;28;20028;-48
2022/10/01 02:02:51;;;;;;;5.32;3.25;;;10.20;99.90;;;;;;5049132;28;20112;-47
2022/10/01 02:05:24;;;;;;;7.22;3.78;;;10.20;99.90;;;;;;5050317;28;20104;-45
2022/10/01 02:08:22;;;;;;;5.90;3.50;;;10.20;99.90;;;;;;5050270;28;20036;-47
2022/10/01 02:11:24;;;;;;;4.80;3.33;;;10.20;99.90;;;;;;5050215;28;20108;-45
2022/10/01 02:13:56;;;;;;;6.97;3.97;;;10.20;99.90;;;;;;5046463;28;20029;-45
2022/10/01 02:16:29;;;;;;;6.97;3.17;;;10.20;99.90;;;;;;5048636;28;20483;-45
2022/10/01 02:19:21;;;;;;;6.35;3.67;;;10.20;99.90;;;;;;5038039;28;20491;-47
2022/10/01 02:21:59;;;;;;;6.45;3.50;;;10.20;99.90;;;;;;5010580;28;20108;-45
2022/10/01 02:24:38;;;;;;;4.47;3.10;;;10.20;99.90;;;;;;5010034;28;20030;-45
2022/10/01 02:27:12;;;;;;;7.05;3.35;;;10.20;99.90;;;;;;5010428;28;20394;-44
2022/10/01 02:29:40;;;;;;;5.20;3.50;;;10.20;99.90;;;;;;5009919;28;20546;-45
2022/10/01 02:32:07;;;;;;;6.60;3.50;;;10.20;99.90;;;;;;5010589;28;20025;-44
2022/10/01 02:34:33;;;;;;;5.82;3.75;;;10.20;99.90;;;;;;5009729;28;20076;-45
2022/10/01 02:37:02;;;;;;;6.82;3.10;;;10.20;99.90;;;;;;5010124;28;20038;-44
2022/10/01 02:39:31;;;;;;;5.83;3.27;;;10.20;99.90;;;;;;5010124;28;20092;-45
2022/10/01 02:41:59;;;;;;;8.60;3.38;;;10.20;99.90;;;;;;5010174;28;20084;-43
2022/10/01 02:44:31;;;;;;;5.55;3.42;;;10.20;99.90;;;;;;5009650;28;20026;-44
2022/10/01 02:47:06;;;;;;;9.57;3.70;;;10.20;99.90;;;;;;5015081;28;20046;-43
2022/10/01 02:49:34;;;;;;;7.10;3.35;;;10.20;99.90;;;;;;5030760;28;20156;-43
2022/10/01 02:52:19;;;;;;;3.78;3.10;;;10.20;99.90;;;;;;5028521;28;20521;-44
2022/10/01 02:54:57;;;;;;;9.15;3.78;;;10.30;99.90;;;;;;5029637;28;20502;-43
2022/10/01 03:00:44;;;;;;;8.80;3.30;;;10.30;99.90;;;;;;5027784;28;20032;-44
2022/10/01 03:03:09;;;;;;;9.10;3.92;;;10.30;99.90;;;;;;5028752;28;20034;-43
2022/10/01 03:05:35;;;;;;;7.03;3.83;;;10.30;99.90;;;;;;5029487;28;20061;-43
2022/10/01 03:08:00;;;;;;;10.60;4.22;;;10.40;99.90;;;;;;5028268;28;20028;-44
2022/10/01 03:10:26;;;;;;;9.32;3.97;;;10.40;99.90;;;;;;5029699;28;20018;-44
2022/10/01 03:12:51;;;;;;;5.55;3.70;;;10.40;99.90;;;;;;5029033;28;20109;-44
2022/10/01 03:15:18;;;;;;;5.15;3.47;;;10.40;99.90;;;;;;5029875;28;20022;-44
2022/10/01 03:17:44;;;;;;;7.00;3.80;;;10.40;99.90;;;;;;5035065;28;20031;-44
2022/10/01 03:20:11;;;;;;;4.97;3.65;;;10.50;99.90;;;;;;5040790;28;20033;-43
2022/10/01 03:22:36;;;;;;;5.13;3.88;;;10.40;99.90;;;;;;5049031;28;20025;-44
2022/10/01 03:25:02;;;;;;;7.95;3.65;;;10.40;99.90;;;;;;5047791;28;20115;-44
2022/10/01 03:27:27;;;;;;;9.23;3.92;;;10.50;99.90;;;;;;5049117;28;20028;-44
2022/10/01 03:29:53;;;;;;;5.32;3.67;;;10.50;99.90;;;;;;5047980;28;20036;-44
2022/10/01 03:32:19;;;;;;;5.90;3.28;;;10.50;99.90;;;;;;5049291;28;20542;-44
2022/10/01 03:34:46;;;;;;;4.93;2.90;;;10.50;99.90;;;;;;5049265;28;20483;-44
2022/10/01 03:37:11;;;;;;;6.05;3.70;;;10.40;99.90;;;;;;5049467;28;20064;-45
2022/10/01 03:39:37;;;;;;;5.13;3.50;;;10.50;99.90;;;;;;5049026;28;20056;-44
2022/10/01 03:42:04;;;;;;;5.13;3.22;;;10.40;99.90;;;;;;5051355;28;20059;-44
2022/10/01 03:44:30;;;;;;;7.38;3.20;;;10.40;99.90;;;;;;5052625;28;20487;-45
2022/10/01 03:46:56;;;;;;;7.40;3.83;;;10.40;99.90;;;;;;5046831;28;20026;-45
2022/10/01 03:49:21;;;;;;;5.53;3.35;;;10.40;99.90;;;;;;5043818;28;20324;-44
2022/10/01 03:51:47;;;;;;;6.70;3.83;;;10.40;99.90;;;;;;5051651;28;20021;-44
2022/10/01 03:54:12;;;;;;;6.25;3.85;;;10.40;99.90;;;;;;5052353;28;20474;-45
2022/10/01 03:56:41;;;;;;;8.38;3.42;;;10.40;99.90;;;;;;5052890;28;20029;-44
2022/10/01 03:59:10;;;;;;;6.55;3.40;;;10.50;99.90;;;;;;5051644;28;20021;-44
2022/10/01 04:01:35;;;;;;;15.18;3.92;;;10.50;99.90;;;;;;5051602;28;20036;-44
2022/10/01 04:04:01;;;;;;;8.45;3.67;;;10.50;99.90;;;;;;5052144;28;20023;-45
2022/10/01 04:06:26;;;;;;;5.40;3.58;;;10.50;99.90;;;;;;5053103;28;20029;-45
2022/10/01 04:08:52;;;;;;;5.97;3.45;;;10.50;99.90;;;;;;5052809;28;20036;-44
2022/10/01 04:11:17;;;;;;;5.10;3.55;;;10.50;99.90;;;;;;5051365;28;20029;-44
2022/10/01 04:13:43;;;;;;;3.67;3.03;;;10.60;99.90;;;;;;5052035;28;20433;-44
2022/10/01 04:16:09;;;;;;;6.75;3.40;;;10.60;99.90;;;;;;5053107;28;20090;-45
2022/10/01 04:18:34;;;;;;;6.05;3.05;;;10.60;99.90;;;;;;5040754;28;20395;-44
2022/10/01 04:21:00;;;;;;;4.90;3.22;;;10.70;99.90;;;;;;5049263;28;20017;-44
2022/10/01 04:23:26;;;;;;;5.40;3.58;;;10.70;99.90;;;;;;5050919;28;20083;-45
2022/10/01 04:25:51;;;;;;;6.07;3.28;;;10.70;99.90;;;;;;5052577;28;20098;-44
2022/10/01 04:28:17;;;;;;;6.07;3.40;;;10.70;99.90;;;;;;5050986;28;20517;-44
2022/10/01 04:30:44;;;;;;;6.70;4.00;;;10.80;99.90;;;;;;5052530;28;20060;-44
2022/10/01 04:33:12;;;;;;;6.00;3.70;;;10.90;99.90;;;;;;5051749;28;20037;-45
2022/10/01 04:35:39;;;;;;;4.25;3.10;;;10.90;99.90;;;;;;5052380;28;20029;-45
2022/10/01 04:38:07;;;;;;;6.30;3.35;;;10.90;99.90;;;;;;5052177;28;20263;-45
2022/10/01 04:40:35;;;;;;;9.07;3.92;;;10.90;99.90;;;;;;5034103;28;20029;-44
2022/10/01 04:43:02;;;;;;;4.45;3.88;;;11.00;99.90;;;;;;5031109;28;20021;-44
2022/10/01 04:45:28;;;;;;;6.72;3.80;;;11.00;99.90;;;;;;5031928;28;20108;-45
2022/10/01 04:47:55;;;;;;;5.38;3.42;;;11.10;99.90;;;;;;5039191;28;20092;-46
2022/10/01 04:50:22;;;;;;;6.25;3.70;;;11.00;99.90;;;;;;5028735;28;20021;-48
2022/10/01 04:52:48;;;;;;;7.38;3.58;;;11.00;99.90;;;;;;5024689;28;20037;-44
2022/10/01 04:55:14;;;;;;;5.95;4.03;;;10.90;99.90;;;;;;5031802;28;20029;-44
2022/10/01 04:57:40;;;;;;;5.43;3.80;;;10.90;99.90;;;;;;5030370;28;20395;-44
2022/10/01 05:00:08;;;;;;;7.72;3.55;;;11.00;99.90;;;;;;5031510;28;20040;-45
2022/10/01 05:02:34;;;;;;;5.70;3.90;;;11.00;99.90;;;;;;5031123;28;20407;-45
2022/10/01 05:05:04;;;;;;;6.10;3.55;;;11.10;99.90;;;;;;5031342;28;20033;-44
2022/10/01 05:07:31;;;;;;;6.95;4.40;;;11.00;99.90;;;;;;5031322;28;20140;-45
2022/10/01 05:09:57;;;;;;;6.95;4.50;;;11.10;99.90;;;;;;5031239;28;20033;-45
2022/10/01 05:12:24;;;;;;;4.28;3.22;;;11.10;99.90;;;;;;5029573;28;20022;-44
2022/10/01 05:14:50;;;;;;;8.98;4.32;;;11.10;99.90;;;;;;5030154;28;20029;-44
2022/10/01 05:17:17;;;;;;;4.85;3.88;;;11.10;99.90;;;;;;5033783;28;20068;-45
2022/10/01 05:19:43;;;;;;;7.80;3.90;;;11.10;99.90;;;;;;5042507;28;20029;-45
2022/10/01 05:22:08;;;;;;;5.43;3.65;;;11.10;99.90;;;;;;5049901;28;20025;-45
2022/10/01 05:24:34;;;;;;;6.63;3.95;;;11.10;99.90;;;;;;5050785;28;20041;-47
2022/10/01 05:27:00;;;;;;;6.18;3.50;;;11.10;99.90;;;;;;5051126;28;20025;-45
2022/10/01 05:29:25;;;;;;;6.15;3.50;;;11.10;99.90;;;;;;5051042;28;20025;-45
2022/10/01 05:31:51;;;;;;;5.13;3.67;;;11.00;99.90;;;;;;5051303;28;20447;-46
2022/10/01 05:34:16;;;;;;;8.07;4.15;;;11.00;99.90;;;;;;5017967;28;20513;-45
2022/10/01 05:36:41;;;;;;;12.95;4.10;;;11.10;99.90;;;;;;5030654;28;20117;-45
2022/10/01 05:39:07;;;;;;;7.40;3.95;;;11.10;99.90;;;;;;5029486;28;20025;-45
2022/10/01 05:41:33;;;;;;;8.93;3.83;;;11.20;99.90;;;;;;5030918;28;20483;-45
2022/10/01 05:43:58;;;;;;;4.80;3.80;;;11.20;99.90;;;;;;5030432;28;20037;-46
2022/10/01 05:46:23;;;;;;;6.60;3.72;;;11.10;99.90;;;;;;5028986;28;20128;-46
2022/10/01 05:48:50;;;;;;;5.80;3.50;;;11.20;99.90;;;;;;5038900;28;20068;-44
2022/10/01 05:51:16;;;;;;;7.40;3.53;;;11.00;99.90;;;;;;5049372;28;20079;-46
2022/10/01 05:53:42;;;;;;;8.55;3.83;;;11.00;99.90;;;;;;5048839;28;20116;-45
2022/10/01 05:56:09;;;;;;;6.22;3.55;;;10.90;99.90;;;;;;5050568;28;20132;-45
2022/10/01 05:58:34;;;;;;;6.00;3.80;;;10.80;99.90;;;;;;5050501;28;20024;-46
2022/10/01 06:01:00;;;;;;;10.20;4.43;;;10.60;99.90;;;;;;5050721;28;20107;-46
2022/10/01 06:03:27;;;;;;;7.07;3.80;;;10.60;99.90;;;;;;5050027;28;20029;-45
2022/10/01 06:05:53;;;;;;;6.55;5.03;;;10.50;99.90;;;;;;5051025;28;20017;-47
2022/10/01 06:08:19;;;;;;;6.30;4.53;;;10.40;99.90;;;;;;5051287;28;20521;-44
2022/10/01 06:10:45;;;;;;;8.68;5.60;;;10.30;99.90;;;;;;5051309;28;20025;-45
2022/10/01 06:13:16;;;;;;;7.15;4.10;;;10.30;99.90;;;;;;5050405;28;20059;-46
2022/10/01 06:15:42;;;;;;;7.82;5.03;;;10.30;99.90;;;;;;5049652;28;20029;-45
2022/10/01 06:18:10;;;;;;;7.47;4.28;;;10.20;99.90;;;;;;5032303;28;20510;-46
2022/10/01 06:20:36;;;;;;;7.45;4.75;;;10.20;99.90;;;;;;5019623;28;20056;-45
2022/10/01 06:23:04;;;;;;;11.40;4.95;;;10.20;99.90;;;;;;5019967;28;20030;-47
2022/10/01 06:25:30;;;;;;;7.60;5.00;;;10.20;99.90;;;;;;5024057;28;20539;-47
2022/10/01 06:27:58;;;;;;;10.82;5.57;;;10.10;99.90;;;;;;5028644;28;20028;-46
2022/10/01 06:30:31;;;;;;;7.70;5.38;;;10.10;99.90;;;;;;5024500;28;20036;-48
2022/10/01 06:33:03;;;;;;;10.48;6.43;;;10.10;99.90;;;;;;5018158;28;20384;-46
2022/10/01 06:35:29;;;;;;;11.75;5.55;;;10.10;99.90;;;;;;5020314;28;20032;-47
2022/10/01 06:37:55;;;;;;;7.95;5.28;;;10.00;99.90;;;;;;5024597;28;20488;-47
2022/10/01 06:40:20;;;;;;;8.57;5.38;;;10.00;99.90;;;;;;5030874;28;20052;-45
2022/10/01 06:42:48;;;;;;;9.27;5.82;;;10.00;99.90;;;;;;5023928;28;20040;-47
2022/10/01 06:45:14;;;;;;;13.80;5.07;;;9.90;99.90;;;;;;5011114;28;20022;-49
2022/10/01 06:47:40;;;;;;;9.07;5.18;;;10.00;99.90;;;;;;5027198;28;20079;-48
2022/10/01 06:50:06;;;;;;;9.57;6.13;;;10.00;99.90;;;;;;5041897;28;20029;-49
2022/10/01 06:52:49;;;;;;;8.23;5.18;;;9.90;99.90;;;;;;5050356;28;20429;-46
2022/10/01 06:55:24;;;;;;;7.97;5.03;;;9.90;99.90;;;;;;5050811;28;20068;-46
2022/10/01 06:57:57;;;;;;;8.48;4.82;;;9.80;99.90;;;;;;5049599;28;20033;-47
2022/10/01 07:00:23;;;;;;;6.30;5.07;;;9.80;99.90;;;;;;5050750;28;20029;-47
2022/10/01 07:02:49;;;;;;;8.52;4.80;;;9.80;99.90;;;;;;5034020;28;20037;-50
2022/10/01 07:05:15;;;;;;;8.43;5.07;;;9.80;99.90;;;;;;5030380;28;20052;-50
2022/10/01 07:07:42;;;;;;;5.93;4.68;;;9.80;99.90;;;;;;5030430;28;20030;-49
2022/10/01 07:10:09;;;;;;;6.88;4.70;;;9.80;99.90;;;;;;5030607;28;20017;-48
2022/10/01 07:12:35;;;;;;;7.40;4.10;;;9.80;99.90;;;;;;5023278;28;20033;-47
2022/10/01 07:15:01;;;;;;;8.70;5.20;;;9.80;99.90;;;;;;5029549;28;20430;-47
2022/10/01 07:17:27;;;;;;;10.48;5.25;;;9.70;99.90;;;;;;5026235;28;20486;-48
2022/10/01 07:19:52;;;;;;;7.88;4.50;;;9.70;99.90;;;;;;5027363;28;20037;-49
2022/10/01 07:22:18;;;;;;;10.80;6.10;;;9.70;99.90;;;;;;5018578;28;20030;-49
2022/10/01 07:24:45;;;;;;;7.32;4.55;;;9.80;99.90;;;;;;5017249;28;20030;-46
2022/10/01 07:27:10;;;;;;;9.55;5.32;;;9.80;99.90;;;;;;5019127;28;20017;-46
2022/10/01 07:29:36;;;;;;;6.45;4.60;;;9.80;99.90;;;;;;5016703;28;20167;-46
2022/10/01 07:32:07;;;;;;;9.90;5.07;;;9.70;99.90;;;;;;5023183;28;20671;-47
2022/10/01 07:34:33;;;;;;;11.32;6.00;;;9.70;99.90;;;;;;5017049;28;20017;-47
2022/10/01 07:36:59;;;;;;;9.18;5.63;;;9.80;99.90;;;;;;5019425;28;20033;-47
2022/10/01 07:39:24;;;;;;;6.35;5.18;;;9.70;99.90;;;;;;5018418;28;20452;-46
2022/10/01 07:41:50;;;;;;;10.52;5.22;;;9.70;99.90;;;;;;5018136;28;20025;-47
2022/10/01 07:44:16;;;;;;;7.03;5.72;;;9.70;99.90;;;;;;5019094;28;20442;-47
2022/10/01 07:46:42;;;;;;;8.93;6.25;;;9.70;99.90;;;;;;5018342;28;20518;-47
2022/10/01 07:49:08;;;;;;;8.98;6.35;;;9.70;99.90;;;;;;5026019;28;20334;-46
2022/10/01 07:51:35;;;;;;;11.75;6.32;;;9.70;99.90;;;;;;5020703;28;20017;-46
2022/10/01 07:54:01;;;;;;;10.25;6.35;;;9.70;99.90;;;;;;5017624;28;20080;-47
2022/10/01 07:56:27;;;;;;;11.70;6.15;;;9.80;99.90;;;;;;5018649;28;20451;-46
2022/10/01 07:58:56;;;;;;;11.45;6.47;;;9.80;99.90;;;;;;5018170;28;20105;-47
2022/10/01 08:01:23;;;;;;;12.23;7.53;;;9.70;99.90;;;;;;5018463;28;20540;-46
2022/10/01 08:03:49;;;;;;;11.90;6.30;;;9.70;99.90;;;;;;5016869;28;20427;-46
2022/10/01 08:06:17;;;;;;;10.10;6.95;;;9.80;99.90;;;;;;5019446;28;20014;-47
2022/10/01 08:08:42;;;;;;;8.35;6.35;;;9.70;99.90;;;;;;5018465;28;20015;-47
2022/10/01 08:11:09;;;;;;;13.05;6.97;;;9.70;99.90;;;;;;5017158;28;20480;-47
2022/10/01 08:13:35;;;;;;;9.73;7.13;;;9.70;99.90;;;;;;5018953;28;20018;-47
2022/10/01 08:16:03;;;;;;;8.90;6.72;;;9.70;99.90;;;;;;5018040;28;20022;-49
2022/10/01 08:18:28;;;;;;;7.75;5.82;;;9.70;99.90;;;;;;5026102;28;20435;-47
2022/10/01 08:20:54;;;;;;;10.15;6.00;;;9.70;99.90;;;;;;5021992;28;20061;-46
2022/10/01 08:23:20;;;;;;;10.52;5.28;;;9.80;99.90;;;;;;5015569;28;20022;-46
2022/10/01 08:25:46;;;;;;;9.25;5.45;;;9.80;99.90;;;;;;5016897;28;20033;-46
2022/10/01 08:28:12;;;;;;;5.53;4.90;;;9.80;99.90;;;;;;5021200;28;20551;-46
2022/10/01 08:30:40;;;;;;;8.63;5.10;;;9.80;99.90;;;;;;5020910;28;20108;-46
2022/10/01 08:33:08;;;;;;;7.55;4.68;;;9.80;99.90;;;;;;5027784;28;20366;-48
2022/10/01 08:35:37;;;;;;;10.27;4.80;;;9.80;99.90;;;;;;5021670;28;20065;-46
2022/10/01 08:38:03;;;;;;;7.45;4.13;;;9.80;99.90;;;;;;5022165;28;20087;-47
2022/10/01 08:40:34;;;;;;;7.97;4.88;;;9.80;99.90;;;;;;5022069;28;20021;-46
2022/10/01 08:43:05;;;;;;;8.15;5.57;;;9.80;99.90;;;;;;5020746;28;20097;-46
2022/10/01 08:45:41;;;;;;;9.82;5.32;;;9.80;99.90;;;;;;5022118;28;20021;-47
2022/10/01 08:48:24;;;;;;;7.35;5.00;;;9.80;99.90;;;;;;5028411;28;20492;-48
2022/10/01 08:51:11;;;;;;;7.18;4.80;;;9.90;99.90;;;;;;5025940;28;20415;-50
2022/10/01 08:53:44;;;;;;;12.23;5.97;;;9.90;99.90;;;;;;5023503;28;20024;-48
2022/10/01 08:56:33;;;;;;;8.50;4.55;;;9.90;99.90;;;;;;5023500;28;20034;-48
2022/10/01 08:59:12;;;;;;;5.75;4.32;;;9.80;99.90;;;;;;5021811;28;20060;-47
2022/10/01 09:01:38;;;;;;;12.10;5.15;;;9.90;99.90;;;;;;5022629;28;20026;-48
2022/10/01 09:04:04;;;;;;;7.82;4.82;;;9.90;99.90;;;;;;5020787;28;20033;-46
2022/10/01 09:06:30;;;;;;;5.88;4.40;;;9.90;99.90;;;;;;5021481;28;20065;-46
2022/10/01 09:09:23;;;;;;;10.88;4.47;;;9.90;99.90;;;;;;5020132;28;20124;-46
2022/10/01 09:12:22;;;;;;;5.90;3.88;;;9.90;99.90;;;;;;5021429;28;20022;-46
2022/10/01 09:14:53;;;;;;;10.35;4.47;;;10.00;99.90;;;;;;5019635;28;20053;-48
2022/10/01 09:18:00;;;;;;;6.40;3.83;;;10.00;99.90;;;;;;5023800;28;20021;-47
2022/10/01 09:20:42;;;;;;;5.55;3.72;;;10.10;99.90;;;;;;5026077;28;20376;-46
2022/10/01 09:23:30;;;;;;;5.78;4.07;;;10.20;99.90;;;;;;5011694;28;20029;-46
2022/10/01 09:25:58;;;;;;;6.55;4.00;;;10.20;99.90;;;;;;5012851;28;20368;-47
2022/10/01 09:28:27;;;;;;;4.53;3.85;;;10.20;99.90;;;;;;5012665;28;20026;-46
2022/10/01 09:31:16;;;;;;;3.78;3.15;;;10.30;99.90;;;;;;5012521;28;20656;-46
2022/10/01 09:34:13;;;;;;;4.38;3.35;;;10.30;99.90;;;;;;5026287;28;20059;-49
2022/10/01 09:37:04;;;;;;;3.90;3.38;;;10.30;99.90;;;;;;5021600;28;20068;-50
2022/10/01 09:39:40;;;;;;;4.22;3.03;;;10.30;99.90;;;;;;5020648;28;20372;-49
2022/10/01 09:42:06;;;;;;;4.88;3.40;;;10.30;99.90;;;;;;5021172;28;20109;-47
2022/10/01 09:44:32;;;;;;;3.33;2.72;;;10.40;99.90;;;;;;5031543;28;20539;-50
2022/10/01 09:46:58;;;;;;;4.38;2.75;;;10.60;99.90;;;;;;5031903;28;20454;-46
2022/10/01 09:49:32;;;;;;;4.28;3.22;;;10.60;99.90;;;;;;5036869;28;20024;-46
2022/10/01 09:52:03;;;;;;;3.95;3.10;;;10.60;99.90;;;;;;5018731;28;20022;-48
2022/10/01 09:54:41;;;;;;;4.78;2.92;;;10.60;99.90;;;;;;5021240;28;20018;-49
2022/10/01 09:57:17;;;;;;;4.43;2.97;;;10.70;99.90;;;;;;5027418;28;20026;-48
2022/10/01 09:59:49;;;;;;;5.93;2.70;;;10.80;99.90;;;;;;5024196;28;20014;-45
2022/10/01 10:02:30;;;;;;;4.93;2.97;;;10.90;99.90;;;;;;5024053;28;20092;-47
2022/10/01 10:05:00;;;;;;;3.97;3.33;;;10.80;99.90;;;;;;5020619;28;20022;-46
2022/10/01 10:07:27;;;;;;;5.55;2.78;;;10.80;99.90;;;;;;5021962;28;20097;-47
2022/10/01 10:09:53;;;;;;;4.78;3.28;;;10.80;99.90;;;;;;5022387;28;20018;-45
2022/10/01 10:12:25;;;;;;;3.40;2.50;;;11.00;99.90;;;;;;5026122;28;20063;-47
2022/10/01 10:14:55;;;;;;;4.63;2.60;;;11.10;99.90;;;;;;5030638;28;20412;-46
2022/10/01 10:17:21;;;;;;;3.05;2.72;;;11.00;99.90;;;;;;5034558;28;20079;-49
2022/10/01 10:19:50;;;;;;;6.55;2.55;;;11.00;99.90;;;;;;5034985;28;20037;-46
2022/10/01 10:22:26;;;;;;;3.92;2.50;;;11.10;99.90;;;;;;5020411;28;20079;-47
2022/10/01 10:24:53;;;;;;;4.05;2.63;;;11.10;99.90;;;;;;5019551;28;20034;-46
2022/10/01 10:27:25;;;;;;;4.22;2.90;;;11.10;99.90;;;;;;5018924;28;20079;-46
2022/10/01 10:30:12;;;;;;;5.47;3.17;;;11.10;99.90;;;;;;5021017;28;20037;-49
2022/10/01 10:32:38;;;;;;;3.85;2.38;;;11.90;99.90;;;;;;5012608;28;20034;-47
2022/10/01 10:35:12;;;;;;;2.83;2.35;;;13.20;99.90;;;;;;5020830;28;20025;-46
2022/10/01 10:37:45;;;;;;;1.38;1.27;;;14.50;99.90;;;;;;5020770;28;20025;-47
2022/10/01 10:40:21;;;;;;;2.50;1.02;;;15.70;99.90;;;;;;5016421;28;20042;-47
2022/10/01 10:42:49;;;;;;;1.30;0.82;;;16.60;99.90;;;;;;5017443;28;20026;-47
2022/10/01 10:45:19;;;;;;;2.53;1.02;;;17.60;99.90;;;;;;5019824;28;20029;-47
2022/10/01 10:47:48;;;;;;;0.80;0.80;;;18.30;99.90;;;;;;5018462;28;20021;-47
2022/10/01 10:50:28;;;;;;;1.05;0.80;;;17.40;99.90;;;;;;5022677;28;20464;-46
2022/10/01 10:52:53;;;;;;;3.67;0.90;;;17.50;99.90;;;;;;5017120;28;20112;-46
2022/10/01 10:55:23;;;;;;;2.75;1.10;;;17.10;99.90;;;;;;5017871;28;20041;-49
2022/10/01 10:57:49;;;;;;;1.17;0.90;;;16.70;99.90;;;;;;5016490;28;20022;-47
2022/10/01 11:00:16;;;;;;;1.13;0.95;;;16.60;99.90;;;;;;5017101;28;20022;-46
2022/10/01 11:03:04;;;;;;;1.13;0.88;;;16.00;99.90;;;;;;5017297;28;20499;-46
2022/10/01 11:05:31;;;;;;;1.00;0.80;;;16.30;99.90;;;;;;5017564;28;20026;-45
2022/10/01 11:08:00;;;;;;;1.45;1.00;;;16.60;99.90;;;;;;5018686;28;20095;-47
2022/10/01 11:10:25;;;;;;;1.15;1.05;;;16.10;99.90;;;;;;5020522;28;20454;-48
2022/10/01 11:13:25;;;;;;;3.28;0.90;;;16.00;99.90;;;;;;5023622;28;20100;-46
2022/10/01 11:16:19;;;;;;;1.20;1.00;;;15.90;99.90;;;;;;5018851;28;20490;-47
2022/10/01 11:19:07;;;;;;;1.85;1.02;;;15.80;99.90;;;;;;5043112;28;20525;-46
2022/10/01 11:21:51;;;;;;;2.22;1.02;;;15.80;99.90;;;;;;5018903;28;20029;-46
2022/10/01 11:24:23;;;;;;;2.17;0.93;;;15.60;99.90;;;;;;5026034;28;20452;-45
2022/10/01 11:27:04;;;;;;;1.83;1.05;;;15.30;99.90;;;;;;5021398;28;20549;-46
2022/10/01 11:29:54;;;;;;;3.65;1.25;;;15.10;99.90;;;;;;5018049;28;20061;-47
2022/10/01 11:32:40;;;;;;;1.70;1.20;;;15.00;99.90;;;;;;5019832;28;20026;-45
2022/10/01 11:35:18;;;;;;;1.05;0.98;;;14.80;99.90;;;;;;5018503;28;20042;-46
2022/10/01 11:37:57;;;;;;;1.25;1.15;;;14.60;99.90;;;;;;5018577;28;20026;-47
2022/10/01 11:40:27;;;;;;;1.27;1.00;;;14.60;99.90;;;;;;5019514;28;20018;-46
2022/10/01 11:43:01;;;;;;;1.33;1.23;;;14.40;99.90;;;;;;5017776;28;20026;-45
2022/10/01 11:45:34;;;;;;;1.63;1.33;;;14.50;99.90;;;;;;5016679;28;20034;-45
2022/10/01 11:48:07;;;;;;;1.10;1.00;;;14.70;99.90;;;;;;5023430;28;20036;-46
2022/10/01 11:50:41;;;;;;;2.83;1.40;;;14.90;99.90;;;;;;5020723;28;20494;-46
2022/10/01 11:53:23;;;;;;;1.27;1.00;;;14.90;99.90;;;;;;5017408;28;20026;-46
2022/10/01 11:59:25;;;;;;;1.70;1.20;;;14.80;99.90;;;;;;5014976;28;20033;-45
2022/10/01 12:02:14;;;;;;;1.80;1.65;;;14.90;99.90;;;;;;5019826;28;20048;-45
2022/10/01 12:04:48;;;;;;;1.10;1.00;;;14.80;99.90;;;;;;5021821;28;20014;-45
2022/10/01 12:07:38;;;;;;;1.65;1.40;;;14.70;99.90;;;;;;5021859;28;20014;-45
2022/10/01 12:10:28;;;;;;;1.75;1.55;;;14.70;99.90;;;;;;5022984;28;20022;-45
2022/10/01 12:13:19;;;;;;;1.40;1.30;;;14.80;99.90;;;;;;5021018;28;20285;-44
2022/10/01 12:15:57;;;;;;;1.73;1.30;;;14.80;99.90;;;;;;5023701;28;20022;-44
2022/10/01 12:18:27;;;;;;;5.00;1.98;;;14.90;99.90;;;;;;5027611;28;20491;-45
2022/10/01 12:20:56;;;;;;;2.30;1.75;;;14.90;99.90;;;;;;5024522;28;20356;-46
2022/10/01 12:23:27;;;;;;;1.70;1.52;;;15.00;99.90;;;;;;5022898;28;20037;-45
2022/10/01 12:26:06;;;;;;;;;;;15.00;99.90;;;;;;5019088;28;20022;-45
2022/10/01 12:28:36;;;;;;;3.65;1.40;;;15.00;99.90;;;;;;5027500;28;19916;-45
2022/10/01 12:31:30;;;;;;;1.88;1.48;;;15.20;99.90;;;;;;5029524;28;20112;-45
2022/10/01 12:34:04;;;;;;;4.75;1.65;;;15.30;99.90;;;;;;5027092;28;20017;-47
2022/10/01 12:36:49;;;;;;;2.03;1.38;;;15.50;99.90;;;;;;5029240;28;20076;-45
2022/10/01 12:39:52;;;;;;;1.73;1.30;;;15.40;99.90;;;;;;5026767;28;20070;-47
2022/10/01 12:42:38;;;;;;;1.60;1.50;;;15.60;99.90;;;;;;5022238;28;20110;-45
2022/10/01 12:45:27;;;;;;;2.47;1.60;;;15.80;99.90;;;;;;5022937;28;20112;-46
2022/10/01 12:48:18;;;;;;;1.85;1.48;;;16.00;99.90;;;;;;5025662;28;20025;-45
2022/10/01 12:51:15;;;;;;;1.85;1.35;;;16.50;99.90;;;;;;5023732;28;20090;-47
2022/10/01 12:54:08;;;;;;;2.33;1.38;;;17.10;99.90;;;;;;5022171;28;20034;-46
2022/10/01 12:56:39;;;;;;;4.22;1.75;;;17.10;99.90;;;;;;5021406;28;20097;-46
2022/10/01 12:59:31;;;;;;;4.43;1.88;;;17.20;99.90;;;;;;5021024;28;20033;-47
2022/10/01 13:02:13;;;;;;;3.28;1.70;;;17.40;99.90;;;;;;5026310;28;20045;-45
2022/10/01 13:05:05;;;;;;;4.07;1.60;;;17.50;99.90;;;;;;5029037;28;20095;-46
2022/10/01 13:07:49;;;;;;;2.25;1.52;;;17.80;99.90;;;;;;5032010;28;20105;-46
2022/10/01 13:10:31;;;;;;;4.93;1.60;;;17.90;99.90;;;;;;5032260;28;20025;-49
2022/10/01 13:13:09;;;;;;;2.95;1.50;;;17.30;99.90;;;;;;5031143;28;20025;-48
2022/10/01 13:15:38;;;;;;;4.25;2.22;;;17.10;99.90;;;;;;5031713;28;20272;-49
2022/10/01 13:18:12;;;;;;;2.33;1.52;;;17.00;99.90;;;;;;5038542;28;20025;-49